createdAt,value
2019-05-22T00:00:10.886Z,13.57
2019-05-22T00:01:09.964Z,13.55
2019-05-22T00:02:09.952Z,13.58
2019-05-22T00:03:10.004Z,13.52
2019-05-22T00:04:09.945Z,13.6
2019-05-22T00:05:09.960Z,13.55
2019-05-22T00:06:09.979Z,13.49
2019-05-22T00:07:09.965Z,13.6
2019-05-22T00:08:09.975Z,13.55
2019-05-22T00:09:09.982Z,13.6
2019-05-22T00:10:10.157Z,13.65
2019-05-22T00:11:09.953Z,13.57
2019-05-22T00:12:09.979Z,13.57
2019-05-22T00:13:10.030Z,13.58
2019-05-22T00:14:09.974Z,13.58
2019-05-22T00:15:10.140Z,13.47
2019-05-22T00:16:10.036Z,13.49
2019-05-22T00:17:09.974Z,13.49
2019-05-22T00:18:10.024Z,13.52
2019-05-22T00:19:09.991Z,13.43
2019-05-22T00:20:10.209Z,13.49
2019-05-22T00:21:10.009Z,13.45
2019-05-22T00:22:09.988Z,13.47
2019-05-22T00:23:09.995Z,13.47
2019-05-22T00:24:09.983Z,13.52
2019-05-22T00:25:10.012Z,13.43
2019-05-22T00:26:10.042Z,13.45
2019-05-22T00:27:10.295Z,13.46
2019-05-22T00:28:10.056Z,13.43
2019-05-22T00:29:10.147Z,13.39
2019-05-22T00:30:11.038Z,13.37
2019-05-22T00:31:10.055Z,13.42
2019-05-22T00:32:10.023Z,13.46
2019-05-22T00:33:10.021Z,13.36
2019-05-22T00:34:10.009Z,13.39
2019-05-22T00:35:10.061Z,13.42
2019-05-22T00:36:10.068Z,13.37
2019-05-22T00:37:10.116Z,13.42
2019-05-22T00:38:10.314Z,13.42
2019-05-22T00:39:10.111Z,13.43
2019-05-22T00:40:11.160Z,13.43
2019-05-22T00:41:10.103Z,13.37
2019-05-22T00:42:10.033Z,13.24
2019-05-22T00:43:18.567Z,13.39
2019-05-22T00:44:10.033Z,13.39
2019-05-22T00:45:10.108Z,13.39
2019-05-22T00:46:10.073Z,13.33
2019-05-22T00:47:10.060Z,13.36
2019-05-22T00:48:10.132Z,13.37
2019-05-22T00:49:10.051Z,13.39
2019-05-22T00:50:10.194Z,13.31
2019-05-22T00:51:10.102Z,13.31
2019-05-22T00:52:10.071Z,13.37
2019-05-22T00:53:10.056Z,13.31
2019-05-22T00:54:10.106Z,13.31
2019-05-22T00:55:10.137Z,13.28
2019-05-22T00:56:10.082Z,13.37
2019-05-22T00:57:10.095Z,13.31
2019-05-22T00:58:10.108Z,13.37
2019-05-22T00:59:10.097Z,13.33
2019-05-22T01:00:10.242Z,13.36
2019-05-22T01:01:10.116Z,13.26
2019-05-22T01:02:10.120Z,13.3
2019-05-22T01:03:10.118Z,13.43
2019-05-22T01:04:10.143Z,13.37
2019-05-22T01:05:10.148Z,13.36
2019-05-22T01:06:10.062Z,13.23
2019-05-22T01:07:10.112Z,13.3
2019-05-22T01:08:10.133Z,13.36
2019-05-22T01:09:10.121Z,13.31
2019-05-22T01:10:10.780Z,13.28
2019-05-22T01:11:10.077Z,13.36
2019-05-22T01:12:10.146Z,13.36
2019-05-22T01:13:10.089Z,13.37
2019-05-22T01:14:10.120Z,13.36
2019-05-22T01:15:10.307Z,13.24
2019-05-22T01:16:10.129Z,13.31
2019-05-22T01:17:10.173Z,13.36
2019-05-22T01:18:10.123Z,13.33
2019-05-22T01:19:10.157Z,13.28
2019-05-22T01:20:10.804Z,13.33
2019-05-22T01:21:10.128Z,13.23
2019-05-22T01:22:10.170Z,13.31
2019-05-22T01:23:10.215Z,13.26
2019-05-22T01:24:10.135Z,13.27
2019-05-22T01:25:10.144Z,13.26
2019-05-22T01:26:10.510Z,13.36
2019-05-22T01:27:10.101Z,13.27
2019-05-22T01:28:10.165Z,13.21
2019-05-22T01:29:10.093Z,13.3
2019-05-22T01:30:11.143Z,13.21
2019-05-22T01:31:10.102Z,13.27
2019-05-22T01:32:10.439Z,13.28
2019-05-22T01:33:10.139Z,13.21
2019-05-22T01:34:10.164Z,13.19
2019-05-22T01:35:10.183Z,13.21
2019-05-22T01:36:10.145Z,13.3
2019-05-22T01:37:10.188Z,13.27
2019-05-22T01:38:10.144Z,13.28
2019-05-22T01:39:10.174Z,13.17
2019-05-22T01:40:10.344Z,13.31
2019-05-22T01:41:10.149Z,13.26
2019-05-22T01:42:10.158Z,13.23
2019-05-22T01:43:10.166Z,13.27
2019-05-22T01:44:10.193Z,13.27
2019-05-22T01:45:12.085Z,13.2
2019-05-22T01:46:14.598Z,13.2
2019-05-22T01:47:10.298Z,13.26
2019-05-22T01:48:10.164Z,13.21
2019-05-22T01:49:10.192Z,13.24
2019-05-22T01:50:10.276Z,13.26
2019-05-22T01:51:10.387Z,13.28
2019-05-22T01:52:10.165Z,13.23
2019-05-22T01:53:10.130Z,13.17
2019-05-22T01:54:10.157Z,13.26
2019-05-22T01:55:10.226Z,13.26
2019-05-22T01:56:11.244Z,13.23
2019-05-22T01:57:10.152Z,13.12
2019-05-22T01:58:10.192Z,13.21
2019-05-22T01:59:10.790Z,13.11
2019-05-22T02:00:10.276Z,13.19
2019-05-22T02:01:11.314Z,13.2
2019-05-22T02:02:10.243Z,13.16
2019-05-22T02:03:10.194Z,13.27
2019-05-22T02:04:10.224Z,13.16
2019-05-22T02:05:10.566Z,13.16
2019-05-22T02:06:10.180Z,13.21
2019-05-22T02:07:10.245Z,13.17
2019-05-22T02:08:10.254Z,13.16
2019-05-22T02:09:11.713Z,13.17
2019-05-22T02:10:11.161Z,13.21
2019-05-22T02:11:10.457Z,13.23
2019-05-22T02:12:10.225Z,13.12
2019-05-22T02:13:10.204Z,13.13
2019-05-22T02:14:11.273Z,13.13
2019-05-22T02:15:10.220Z,13.13
2019-05-22T02:16:11.779Z,13.19
2019-05-22T02:17:10.243Z,13.03
2019-05-22T02:18:10.206Z,13.05
2019-05-22T02:19:10.195Z,13.12
2019-05-22T02:20:11.551Z,13.13
2019-05-22T02:21:10.234Z,13.08
2019-05-22T02:22:10.313Z,13.16
2019-05-22T02:23:10.218Z,12.98
2019-05-22T02:24:10.249Z,13.09
2019-05-22T02:25:10.255Z,13.19
2019-05-22T02:26:10.297Z,13.11
2019-05-22T02:27:10.264Z,13.13
2019-05-22T02:28:10.211Z,13.16
2019-05-22T02:29:10.229Z,13.21
2019-05-22T02:30:10.389Z,13.13
2019-05-22T02:31:10.240Z,13.08
2019-05-22T02:32:10.219Z,13.11
2019-05-22T02:33:10.267Z,13.08
2019-05-22T02:34:10.253Z,13.09
2019-05-22T02:35:10.352Z,13.05
2019-05-22T02:36:10.246Z,13.13
2019-05-22T02:37:10.283Z,13.16
2019-05-22T02:38:10.342Z,13.09
2019-05-22T02:39:10.265Z,13.11
2019-05-22T02:40:10.377Z,13.08
2019-05-22T02:41:14.035Z,13.03
2019-05-22T02:42:10.243Z,13.03
2019-05-22T02:43:10.295Z,13.11
2019-05-22T02:44:10.259Z,13.03
2019-05-22T02:45:10.315Z,13.05
2019-05-22T02:46:18.947Z,13.12
2019-05-22T02:47:24.449Z,13.17
2019-05-22T02:48:10.260Z,13.08
2019-05-22T02:49:10.264Z,13.01
2019-05-22T02:50:10.396Z,13.03
2019-05-22T02:51:10.293Z,13.03
2019-05-22T02:52:10.330Z,13.08
2019-05-22T02:53:10.270Z,13.06
2019-05-22T02:54:10.261Z,13.03
2019-05-22T02:55:10.345Z,13.02
2019-05-22T02:56:10.287Z,13.06
2019-05-22T02:57:10.294Z,13.16
2019-05-22T02:58:10.239Z,13.06
2019-05-22T02:59:10.267Z,13.05
2019-05-22T03:00:10.414Z,13.06
2019-05-22T03:01:10.303Z,13.05
2019-05-22T03:02:10.366Z,13.11
2019-05-22T03:03:10.272Z,12.98
2019-05-22T03:04:10.298Z,13.13
2019-05-22T03:05:12.298Z,13.11
2019-05-22T03:06:10.317Z,13.06
2019-05-22T03:07:10.297Z,13.03
2019-05-22T03:08:10.326Z,13.06
2019-05-22T03:09:10.336Z,13.02
2019-05-22T03:10:11.076Z,13.11
2019-05-22T03:11:10.302Z,13.08
2019-05-22T03:12:10.350Z,13.08
2019-05-22T03:13:10.330Z,13.08
2019-05-22T03:14:10.328Z,13.05
2019-05-22T03:15:10.333Z,13.11
2019-05-22T03:16:18.274Z,13.11
2019-05-22T03:17:10.329Z,13.11
2019-05-22T03:18:10.293Z,13.01
2019-05-22T03:19:14.394Z,13.05
2019-05-22T03:20:11.235Z,13.11
2019-05-22T03:21:10.313Z,13.12
2019-05-22T03:22:10.406Z,13.06
2019-05-22T03:23:10.307Z,13.06
2019-05-22T03:24:10.313Z,13.03
2019-05-22T03:25:10.380Z,13.09
2019-05-22T03:26:10.842Z,13.2
2019-05-22T03:27:10.317Z,13.11
2019-05-22T03:28:10.489Z,13.08
2019-05-22T03:29:10.345Z,12.98
2019-05-22T03:30:11.310Z,13.09
2019-05-22T03:31:10.338Z,13.11
2019-05-22T03:32:10.393Z,13.08
2019-05-22T03:33:10.491Z,13.02
2019-05-22T03:34:10.410Z,13.17
2019-05-22T03:35:10.370Z,13.05
2019-05-22T03:36:10.605Z,13.17
2019-05-22T03:37:10.363Z,13.01
2019-05-22T03:38:10.391Z,13.05
2019-05-22T03:39:10.332Z,13.09
2019-05-22T03:40:10.439Z,13.01
2019-05-22T03:41:10.446Z,13.05
2019-05-22T03:42:10.513Z,12.99
2019-05-22T03:43:10.418Z,13.02
2019-05-22T03:44:10.362Z,13.11
2019-05-22T03:45:10.410Z,13.05
2019-05-22T03:46:19.336Z,13.03
2019-05-22T03:47:10.482Z,13.19
2019-05-22T03:48:10.388Z,13.02
2019-05-22T03:49:27.870Z,13.12
2019-05-22T03:50:10.607Z,13.06
2019-05-22T03:51:10.411Z,13.11
2019-05-22T03:52:10.336Z,13.06
2019-05-22T03:53:10.385Z,13.13
2019-05-22T03:54:10.409Z,13.13
2019-05-22T03:55:10.457Z,13.11
2019-05-22T03:56:10.504Z,13.02
2019-05-22T03:57:10.378Z,13.02
2019-05-22T03:58:10.417Z,12.99
2019-05-22T03:59:11.387Z,13.13
2019-05-22T04:00:10.475Z,13.06
2019-05-22T04:01:10.359Z,13.12
2019-05-22T04:02:10.389Z,13.08
2019-05-22T04:03:10.416Z,13.05
2019-05-22T04:04:10.381Z,13.02
2019-05-22T04:05:10.430Z,13.02
2019-05-22T04:06:10.386Z,12.93
2019-05-22T04:07:10.394Z,12.94
2019-05-22T04:08:10.406Z,12.99
2019-05-22T04:09:10.410Z,12.93
2019-05-22T04:10:10.435Z,13.06
2019-05-22T04:16:28.128Z,13.08
2019-05-22T04:17:27.979Z,13.01
2019-05-22T04:18:28.411Z,13.09
2019-05-22T04:19:45.085Z,13.11
2019-05-22T04:20:28.032Z,13.08
2019-05-22T04:21:28.019Z,13.08
2019-05-22T04:22:28.040Z,13.02
2019-05-22T04:23:28.046Z,13.02
2019-05-22T04:26:35.385Z,13.09
2019-05-22T04:26:46.457Z,13.09
2019-05-22T04:27:46.464Z,13.13
2019-05-22T04:28:46.430Z,13.09
2019-05-22T04:29:46.404Z,13.24
2019-05-22T04:30:46.427Z,13.17
2019-05-22T04:31:46.966Z,13.11
2019-05-22T04:32:46.412Z,13.05
2019-05-22T04:33:46.487Z,13.08
2019-05-22T04:34:46.410Z,13.21
2019-05-22T04:35:46.476Z,13.19
2019-05-22T04:36:46.472Z,13.11
2019-05-22T04:37:46.498Z,13.2
2019-05-22T04:38:46.439Z,13.17
2019-05-22T04:39:46.488Z,13.12
2019-05-22T04:40:46.426Z,13.13
2019-05-22T04:41:46.477Z,13.08
2019-05-22T04:42:46.484Z,13.16
2019-05-22T04:43:46.490Z,13.11
2019-05-22T04:44:46.417Z,13.12
2019-05-22T04:45:46.441Z,13.09
2019-05-22T04:46:46.532Z,13.13
2019-05-22T04:47:46.467Z,13.16
2019-05-22T04:48:51.064Z,13.13
2019-05-22T04:49:46.503Z,13.06
2019-05-22T04:50:46.459Z,13.11
2019-05-22T04:51:46.437Z,13.09
2019-05-22T04:52:46.497Z,13.13
2019-05-22T04:53:46.488Z,13.21
2019-05-22T04:54:46.474Z,13.11
2019-05-22T04:55:46.479Z,13.17
2019-05-22T04:56:46.485Z,13.24
2019-05-22T04:57:46.490Z,13.12
2019-05-22T04:58:46.454Z,13.17
2019-05-22T04:59:46.496Z,13.19
2019-05-22T05:00:46.523Z,13.19
2019-05-22T05:01:46.497Z,13.2
2019-05-22T05:02:46.511Z,13.23
2019-05-22T05:03:46.469Z,13.26
2019-05-22T05:04:46.495Z,13.2
2019-05-22T05:05:46.569Z,13.17
2019-05-22T05:06:46.510Z,13.2
2019-05-22T05:07:46.476Z,13.19
2019-05-22T05:08:46.521Z,13.27
2019-05-22T05:09:46.535Z,13.17
2019-05-22T05:10:46.479Z,13.26
2019-05-22T05:11:46.520Z,13.28
2019-05-22T05:12:46.573Z,13.2
2019-05-22T05:13:46.578Z,13.23
2019-05-22T05:14:46.505Z,13.23
2019-05-22T05:15:46.574Z,13.23
2019-05-22T05:16:46.535Z,13.28
2019-05-22T05:17:46.475Z,13.21
2019-05-22T05:18:46.481Z,13.26
2019-05-22T05:19:46.486Z,13.21
2019-05-22T05:20:46.565Z,13.23
2019-05-22T05:21:46.525Z,13.2
2019-05-22T05:22:46.505Z,13.2
2019-05-22T05:23:46.553Z,13.26
2019-05-22T05:24:46.466Z,13.19
2019-05-22T05:25:46.526Z,13.23
2019-05-22T05:26:46.698Z,13.19
2019-05-22T05:32:03.548Z,13.33
2019-05-22T05:32:14.652Z,13.31
2019-05-22T05:33:14.588Z,13.28
2019-05-22T05:34:14.679Z,13.36
2019-05-22T05:35:14.642Z,13.39
2019-05-22T05:36:14.634Z,13.31
2019-05-22T05:37:14.678Z,13.31
2019-05-22T05:38:14.624Z,13.27
2019-05-22T05:39:14.641Z,13.26
2019-05-22T05:40:14.782Z,13.28
2019-05-22T05:41:14.647Z,13.4
2019-05-22T05:42:14.650Z,13.31
2019-05-22T05:43:14.643Z,13.3
2019-05-22T05:44:14.581Z,13.28
2019-05-22T05:45:18.603Z,13.28
2019-05-22T05:46:14.638Z,13.33
2019-05-22T05:47:14.665Z,13.36
2019-05-22T05:48:14.628Z,13.39
2019-05-22T05:49:14.634Z,13.37
2019-05-22T05:50:14.660Z,13.37
2019-05-22T05:51:14.745Z,13.37
2019-05-22T05:52:14.658Z,13.42
2019-05-22T05:53:14.663Z,13.47
2019-05-22T05:54:14.611Z,13.37
2019-05-22T05:55:14.662Z,13.47
2019-05-22T05:56:14.678Z,13.37
2019-05-22T05:57:14.690Z,13.4
2019-05-22T05:58:14.637Z,13.31
2019-05-22T05:59:14.742Z,13.45
2019-05-22T06:00:14.652Z,13.47
2019-05-22T06:01:15.685Z,13.5
2019-05-22T06:02:14.661Z,13.52
2019-05-22T06:03:14.689Z,13.5
2019-05-22T06:04:14.677Z,13.61
2019-05-22T06:05:14.684Z,13.54
2019-05-22T06:06:14.668Z,13.45
2019-05-22T06:07:14.719Z,13.46
2019-05-22T06:08:14.736Z,13.49
2019-05-22T06:09:14.653Z,13.49
2019-05-22T06:11:19.389Z,13.52
2019-05-22T06:11:30.448Z,13.54
2019-05-22T06:12:30.434Z,13.46
2019-05-22T06:13:30.438Z,13.46
2019-05-22T06:14:30.465Z,13.52
2019-05-22T06:16:05.282Z,13.58
2019-05-22T06:16:39.023Z,13.57
2019-05-22T06:17:30.462Z,13.55
2019-05-22T06:18:30.434Z,13.64
2019-05-22T06:19:30.519Z,13.52
2019-05-22T06:20:30.405Z,13.57
2019-05-22T06:21:30.436Z,13.6
2019-05-22T06:22:30.489Z,13.54
2019-05-22T06:23:30.462Z,13.62
2019-05-22T06:24:30.468Z,13.73
2019-05-22T06:25:30.442Z,13.5
2019-05-22T06:26:30.469Z,13.55
2019-05-22T06:27:30.442Z,13.5
2019-05-22T06:28:30.504Z,13.5
2019-05-22T06:29:33.165Z,13.47
2019-05-22T06:30:30.498Z,13.57
2019-05-22T06:31:30.478Z,13.6
2019-05-22T06:32:30.486Z,13.64
2019-05-22T06:33:30.409Z,13.55
2019-05-22T06:34:30.499Z,13.58
2019-05-22T06:35:30.440Z,13.54
2019-05-22T06:36:30.790Z,13.54
2019-05-22T06:37:30.458Z,13.54
2019-05-22T06:38:30.711Z,13.55
2019-05-22T06:39:30.465Z,13.58
2019-05-22T06:40:30.536Z,13.55
2019-05-22T06:41:30.461Z,13.47
2019-05-22T06:42:30.513Z,13.55
2019-05-22T06:43:30.480Z,13.57
2019-05-22T06:44:30.536Z,13.54
2019-05-22T06:45:30.450Z,13.55
2019-05-22T06:46:39.218Z,13.62
2019-05-22T06:47:30.472Z,13.61
2019-05-22T06:48:30.602Z,13.65
2019-05-22T06:49:30.486Z,13.71
2019-05-22T06:50:30.511Z,13.7
2019-05-22T06:51:30.480Z,13.76
2019-05-22T06:52:30.486Z,13.68
2019-05-22T06:53:30.489Z,13.68
2019-05-22T06:54:31.072Z,13.68
2019-05-22T06:55:30.506Z,13.55
2019-05-22T06:56:30.449Z,13.6
2019-05-22T06:57:30.487Z,13.46
2019-05-22T06:58:30.514Z,13.52
2019-05-22T06:59:30.513Z,13.64
2019-05-22T07:00:30.535Z,13.57
2019-05-22T07:01:30.561Z,13.67
2019-05-22T07:02:30.533Z,13.55
2019-05-22T07:03:30.626Z,13.65
2019-05-22T07:04:30.546Z,13.71
2019-05-22T07:05:30.527Z,13.62
2019-05-22T07:06:30.519Z,13.85
2019-05-22T07:07:30.576Z,13.75
2019-05-22T07:08:30.511Z,13.89
2019-05-22T07:09:30.473Z,13.82
2019-05-22T07:10:30.545Z,13.82
2019-05-22T07:11:30.628Z,13.87
2019-05-22T07:12:30.529Z,13.91
2019-05-22T07:13:30.522Z,13.89
2019-05-22T07:14:30.511Z,13.98
2019-05-22T07:15:30.847Z,14.07
2019-05-22T07:16:40.368Z,14.16
2019-05-22T07:17:30.813Z,14.12
2019-05-22T07:18:30.532Z,14.2
2019-05-22T07:19:30.522Z,14.22
2019-05-22T07:20:30.569Z,14.19
2019-05-22T07:21:39.137Z,14.19
2019-05-22T07:22:30.519Z,14.23
2019-05-22T07:23:30.606Z,14.26
2019-05-22T07:24:30.613Z,14.19
2019-05-22T07:25:30.506Z,14.15
2019-05-22T07:26:30.505Z,14.19
2019-05-22T07:27:30.486Z,13.95
2019-05-22T07:28:30.626Z,14.16
2019-05-22T07:29:30.547Z,14.16
2019-05-22T07:30:30.541Z,14.16
2019-05-22T07:31:30.535Z,14.08
2019-05-22T07:32:33.600Z,14.07
2019-05-22T07:33:30.530Z,14.15
2019-05-22T07:34:30.555Z,14.16
2019-05-22T07:36:13.764Z,14.16
2019-05-22T07:36:30.546Z,14.18
2019-05-22T07:37:30.532Z,14.3
2019-05-22T07:38:30.683Z,14.2
2019-05-22T07:39:30.548Z,14.28
2019-05-22T07:40:30.573Z,14.3
2019-05-22T07:41:30.521Z,14.28
2019-05-22T07:42:30.570Z,14.34
2019-05-22T07:43:30.557Z,14.34
2019-05-22T07:44:30.579Z,14.26
2019-05-22T07:45:30.727Z,14.26
2019-05-22T07:46:33.510Z,14.28
2019-05-22T07:47:31.297Z,14.33
2019-05-22T07:48:30.548Z,14.34
2019-05-22T07:49:30.553Z,14.36
2019-05-22T07:50:31.541Z,14.44
2019-05-22T07:51:30.591Z,14.45
2019-05-22T07:52:30.549Z,14.4
2019-05-22T07:53:30.578Z,14.38
2019-05-22T07:54:30.676Z,14.33
2019-05-22T07:55:30.616Z,14.48
2019-05-22T07:56:30.580Z,14.43
2019-05-22T07:57:30.627Z,14.38
2019-05-22T07:58:30.598Z,14.41
2019-05-22T07:59:30.606Z,14.44
2019-05-22T08:00:30.686Z,14.41
2019-05-22T08:01:30.587Z,14.59
2019-05-22T08:02:30.657Z,14.41
2019-05-22T08:03:30.586Z,14.38
2019-05-22T08:04:30.609Z,14.38
2019-05-22T08:05:30.615Z,14.49
2019-05-22T08:06:30.578Z,14.44
2019-05-22T08:11:47.837Z,14.58
2019-05-22T08:11:58.836Z,14.59
2019-05-22T08:12:58.845Z,14.62
2019-05-22T08:13:58.968Z,14.81
2019-05-22T08:14:58.864Z,14.73
2019-05-22T08:15:59.081Z,14.66
2019-05-22T08:16:59.218Z,14.48
2019-05-22T08:17:59.003Z,14.59
2019-05-22T08:18:58.822Z,14.55
2019-05-22T08:22:07.765Z,14.62
2019-05-22T08:22:19.294Z,14.71
2019-05-22T08:28:56.414Z,15
2019-05-22T08:29:59.576Z,14.99
2019-05-22T08:30:56.195Z,15.02
2019-05-22T08:31:57.636Z,14.87
2019-05-22T08:32:57.027Z,14.99
2019-05-22T08:33:56.352Z,14.9
2019-05-22T08:34:56.373Z,14.77
2019-05-22T08:35:56.250Z,14.82
2019-05-22T08:36:56.239Z,14.78
2019-05-22T08:37:56.265Z,14.74
2019-05-22T08:38:56.233Z,14.71
2019-05-22T08:39:56.285Z,14.74
2019-05-22T08:40:56.202Z,14.7
2019-05-22T08:41:56.291Z,14.87
2019-05-22T08:42:56.258Z,14.63
2019-05-22T08:44:20.549Z,14.53
2019-05-22T08:44:56.348Z,14.59
2019-05-22T08:45:56.437Z,14.61
2019-05-22T08:47:00.189Z,14.71
2019-05-22T08:47:56.244Z,14.59
2019-05-22T08:48:56.269Z,14.66
2019-05-22T08:49:56.250Z,14.62
2019-05-22T08:50:56.423Z,14.44
2019-05-22T08:51:56.247Z,14.59
2019-05-22T08:52:56.279Z,14.55
2019-05-22T08:53:56.403Z,14.58
2019-05-22T08:54:56.244Z,14.51
2019-05-22T08:55:56.255Z,14.52
2019-05-22T08:56:56.341Z,14.55
2019-05-22T08:57:56.366Z,14.55
2019-05-22T08:58:56.287Z,14.45
2019-05-22T08:59:56.259Z,14.56
2019-05-22T09:00:56.289Z,14.59
2019-05-22T09:01:56.461Z,14.56
2019-05-22T09:06:25.708Z,14.49
2019-05-22T09:07:25.754Z,14.48
2019-05-22T09:08:25.700Z,14.56
2019-05-22T09:09:25.739Z,14.45
2019-05-22T09:10:28.764Z,14.58
2019-05-22T09:11:25.762Z,14.58
2019-05-22T09:12:25.727Z,14.62
2019-05-22T09:13:25.733Z,14.52
2019-05-22T09:14:25.731Z,14.45
2019-05-22T09:15:25.705Z,14.58
2019-05-22T09:16:25.753Z,14.7
2019-05-22T09:17:25.786Z,14.58
2019-05-22T09:18:25.741Z,14.49
2019-05-22T09:21:33.407Z,14.56
2019-05-22T09:21:46.622Z,14.58
2019-05-22T09:22:46.968Z,14.68
2019-05-22T09:23:46.489Z,14.55
2019-05-22T09:24:46.510Z,14.41
2019-05-22T09:26:51.422Z,14.49
2019-05-22T09:28:02.627Z,14.45
2019-05-22T09:29:02.513Z,14.52
2019-05-22T09:30:02.608Z,14.49
2019-05-22T09:31:02.625Z,14.44
2019-05-22T09:32:02.660Z,14.51
2019-05-22T09:33:02.597Z,14.45
2019-05-22T09:34:02.737Z,14.45
2019-05-22T09:35:02.574Z,14.4
2019-05-22T09:36:02.620Z,14.4
2019-05-22T09:37:02.528Z,14.43
2019-05-22T09:38:02.563Z,14.34
2019-05-22T09:39:02.597Z,14.43
2019-05-22T09:40:02.525Z,14.53
2019-05-22T09:41:02.595Z,14.53
2019-05-22T09:42:04.050Z,14.43
2019-05-22T09:43:02.609Z,14.34
2019-05-22T09:44:02.575Z,14.4
2019-05-22T09:45:02.577Z,14.51
2019-05-22T09:46:02.544Z,14.41
2019-05-22T09:47:06.343Z,14.53
2019-05-22T09:48:02.556Z,14.53
2019-05-22T09:49:02.549Z,14.4
2019-05-22T09:50:02.569Z,14.63
2019-05-22T09:51:02.548Z,14.53
2019-05-22T09:52:02.680Z,14.45
2019-05-22T09:53:03.543Z,14.52
2019-05-22T09:54:02.552Z,14.45
2019-05-22T09:55:02.756Z,14.55
2019-05-22T09:56:02.683Z,14.7
2019-05-22T09:57:02.530Z,14.7
2019-05-22T09:58:02.621Z,14.71
2019-05-22T09:59:02.600Z,14.67
2019-05-22T10:00:02.623Z,14.66
2019-05-22T10:01:02.575Z,14.66
2019-05-22T10:02:02.678Z,14.68
2019-05-22T10:03:02.642Z,14.66
2019-05-22T10:04:02.675Z,14.73
2019-05-22T10:05:02.611Z,14.63
2019-05-22T10:06:03.047Z,14.67
2019-05-22T10:07:02.666Z,14.85
2019-05-22T10:08:06.899Z,14.93
2019-05-22T10:09:02.566Z,14.99
2019-05-22T10:10:02.558Z,15.14
2019-05-22T10:11:02.643Z,15.17
2019-05-22T10:12:02.663Z,15.17
2019-05-22T10:13:02.740Z,15.26
2019-05-22T10:14:02.624Z,15.22
2019-05-22T10:15:03.995Z,15.15
2019-05-22T10:16:02.661Z,15.26
2019-05-22T10:17:03.813Z,15.3
2019-05-22T10:18:02.755Z,15.29
2019-05-22T10:19:02.644Z,15.33
2019-05-22T10:20:02.624Z,15.26
2019-05-22T10:21:02.610Z,15.25
2019-05-22T10:22:04.571Z,15.29
2019-05-22T10:23:19.252Z,15.35
2019-05-22T10:24:02.635Z,15.45
2019-05-22T10:25:20.254Z,15.18
2019-05-22T10:26:02.665Z,15.19
2019-05-22T10:27:02.662Z,15.19
2019-05-22T10:28:04.726Z,15.29
2019-05-22T10:29:02.637Z,15.27
2019-05-22T10:30:02.654Z,15.29
2019-05-22T10:31:04.771Z,15.36
2019-05-22T10:32:03.473Z,15.32
2019-05-22T10:33:05.479Z,15.47
2019-05-22T10:34:02.638Z,15.44
2019-05-22T10:35:03.136Z,15.6
2019-05-22T10:36:04.022Z,15.57
2019-05-22T10:37:02.782Z,15.62
2019-05-22T10:38:02.683Z,15.65
2019-05-22T10:39:02.996Z,15.7
2019-05-22T10:40:02.681Z,15.72
2019-05-22T10:41:04.777Z,15.85
2019-05-22T10:42:02.676Z,15.85
2019-05-22T10:43:02.685Z,15.91
2019-05-22T10:44:02.644Z,15.98
2019-05-22T10:45:02.688Z,16.08
2019-05-22T10:47:17.823Z,15.91
2019-05-22T10:48:05.240Z,15.91
2019-05-22T10:49:05.167Z,15.87
2019-05-22T10:50:05.252Z,15.76
2019-05-22T10:51:05.213Z,15.8
2019-05-22T10:52:05.299Z,15.78
2019-05-22T10:53:05.172Z,15.66
2019-05-22T10:54:05.212Z,15.69
2019-05-22T10:55:05.263Z,15.55
2019-05-22T10:56:05.465Z,15.51
2019-05-22T10:57:05.191Z,15.44
2019-05-22T10:58:05.201Z,15.52
2019-05-22T10:59:06.954Z,15.45
2019-05-22T11:00:05.232Z,15.43
2019-05-22T11:01:05.380Z,15.33
2019-05-22T11:02:05.591Z,15.37
2019-05-22T11:03:05.299Z,15.48
2019-05-22T11:04:05.343Z,15.48
2019-05-22T11:05:05.346Z,15.44
2019-05-22T11:06:12.670Z,15.5
2019-05-22T11:07:05.152Z,15.41
2019-05-22T11:08:05.218Z,15.32
2019-05-22T11:09:05.210Z,15.36
2019-05-22T11:10:05.278Z,15.41
2019-05-22T11:11:05.245Z,15.48
2019-05-22T11:12:05.215Z,15.66
2019-05-22T11:13:05.504Z,15.69
2019-05-22T11:14:09.553Z,15.9
2019-05-22T11:15:05.269Z,15.99
2019-05-22T11:16:05.298Z,16.1
2019-05-22T11:17:15.916Z,16.28
2019-05-22T11:18:05.214Z,16.4
2019-05-22T11:19:05.300Z,16.51
2019-05-22T11:20:05.390Z,16.66
2019-05-22T11:21:05.206Z,16.57
2019-05-22T11:22:05.223Z,16.59
2019-05-22T11:23:05.330Z,16.73
2019-05-22T11:24:05.644Z,16.76
2019-05-22T11:25:05.382Z,17.05
2019-05-22T11:26:05.369Z,17.04
2019-05-22T11:27:05.232Z,17.16
2019-05-22T11:28:05.342Z,17.14
2019-05-22T11:29:05.268Z,17.14
2019-05-22T11:30:25.433Z,17.37
2019-05-22T11:31:20.068Z,17.38
2019-05-22T11:32:05.203Z,17.5
2019-05-22T11:33:05.212Z,17.5
2019-05-22T11:34:05.253Z,17.71
2019-05-22T11:35:05.961Z,17.91
2019-05-22T11:36:05.276Z,18.23
2019-05-22T11:37:05.251Z,18.03
2019-05-22T11:38:05.219Z,18.19
2019-05-22T11:39:05.456Z,18.27
2019-05-22T11:40:05.376Z,18.28
2019-05-22T11:41:05.405Z,18.05
2019-05-22T11:42:05.270Z,18.28
2019-05-22T11:43:05.382Z,18.61
2019-05-22T11:44:05.466Z,18.74
2019-05-22T11:45:05.414Z,18.48
2019-05-22T11:46:05.338Z,18.24
2019-05-22T11:47:16.313Z,18.53
2019-05-22T11:48:05.437Z,18.36
2019-05-22T11:49:05.282Z,18.03
2019-05-22T11:50:05.286Z,18.02
2019-05-22T11:51:06.307Z,18.03
2019-05-22T11:52:05.283Z,17.84
2019-05-22T11:53:05.381Z,17.82
2019-05-22T11:54:14.766Z,17.95
2019-05-22T11:55:05.416Z,17.98
2019-05-22T11:56:05.257Z,17.31
2019-05-22T11:57:05.288Z,17.68
2019-05-22T11:58:05.819Z,17.79
2019-05-22T11:59:05.948Z,17.65
2019-05-22T12:00:08.952Z,17.57
2019-05-22T12:01:05.311Z,17.72
2019-05-22T12:02:05.911Z,17.57
2019-05-22T12:03:05.358Z,17.53
2019-05-22T12:04:05.281Z,17.57
2019-05-22T12:05:05.311Z,17.57
2019-05-22T12:06:05.289Z,17.52
2019-05-22T12:07:05.424Z,17.52
2019-05-22T12:08:05.333Z,17.28
2019-05-22T12:09:05.356Z,17.28
2019-05-22T12:10:05.506Z,17.19
2019-05-22T12:11:05.499Z,17.2
2019-05-22T12:12:05.299Z,17.14
2019-05-22T12:13:05.435Z,17.22
2019-05-22T12:14:05.477Z,17.16
2019-05-22T12:15:05.363Z,17.13
2019-05-22T12:16:05.569Z,17.14
2019-05-22T12:17:13.977Z,17.04
2019-05-22T12:18:05.348Z,17.02
2019-05-22T12:19:05.322Z,17.07
2019-05-22T12:20:05.582Z,16.99
2019-05-22T12:21:05.299Z,17.01
2019-05-22T12:22:05.304Z,16.91
2019-05-22T12:23:05.415Z,16.89
2019-05-22T12:24:05.278Z,16.72
2019-05-22T12:25:05.343Z,16.51
2019-05-22T12:26:05.326Z,16.46
2019-05-22T12:27:05.607Z,16.43
2019-05-22T12:28:05.442Z,16.39
2019-05-22T12:29:05.395Z,16.34
2019-05-22T12:30:05.296Z,16.39
2019-05-22T12:31:05.548Z,16.41
2019-05-22T12:32:05.968Z,16.34
2019-05-22T12:33:12.441Z,16.29
2019-05-22T12:34:05.340Z,16.26
2019-05-22T12:35:05.513Z,16.26
2019-05-22T12:36:05.331Z,16.34
2019-05-22T12:37:05.339Z,16.29
2019-05-22T12:38:06.315Z,16.25
2019-05-22T12:39:05.427Z,16.17
2019-05-22T12:40:05.387Z,16.16
2019-05-22T12:41:05.351Z,16.17
2019-05-22T12:42:05.340Z,16.31
2019-05-22T12:43:05.381Z,16.29
2019-05-22T12:44:05.448Z,16.32
2019-05-22T12:45:06.237Z,16.32
2019-05-22T12:46:05.466Z,16.16
2019-05-22T12:47:05.375Z,16.22
2019-05-22T12:48:05.344Z,16.34
2019-05-22T12:49:08.696Z,16.28
2019-05-22T12:50:05.710Z,16.31
2019-05-22T12:51:05.423Z,16.34
2019-05-22T12:52:05.381Z,16.32
2019-05-22T12:53:05.541Z,16.41
2019-05-22T12:54:05.611Z,16.28
2019-05-22T12:55:05.411Z,16.37
2019-05-22T12:56:05.380Z,16.32
2019-05-22T12:57:05.504Z,16.37
2019-05-22T12:58:05.419Z,16.43
2019-05-22T12:59:05.386Z,16.43
2019-05-22T13:00:08.001Z,16.36
2019-05-22T13:01:05.637Z,16.46
2019-05-22T13:02:05.809Z,16.58
2019-05-22T13:03:05.473Z,16.62
2019-05-22T13:04:05.536Z,16.65
2019-05-22T13:05:05.562Z,16.66
2019-05-22T13:06:05.487Z,16.72
2019-05-22T13:07:05.372Z,16.76
2019-05-22T13:08:05.938Z,16.79
2019-05-22T13:09:05.385Z,16.77
2019-05-22T13:10:05.537Z,16.84
2019-05-22T13:11:07.979Z,16.76
2019-05-22T13:12:05.387Z,16.74
2019-05-22T13:13:05.384Z,16.76
2019-05-22T13:14:05.419Z,16.72
2019-05-22T13:15:15.207Z,16.79
2019-05-22T13:16:05.967Z,16.79
2019-05-22T13:17:05.466Z,16.82
2019-05-22T13:18:08.909Z,16.84
2019-05-22T13:19:05.452Z,16.86
2019-05-22T13:20:05.420Z,16.94
2019-05-22T13:21:05.447Z,16.82
2019-05-22T13:22:05.389Z,17.04